Cisco Butte, California Weather observations

Data are for observation ending at time listed.
 Day   Time    Ave.   Ave.  Ave.  Vector   Max.   Stn.    Total    Solar   Ave.   Snow 
  of    of     Air    Rel.  Wind   Wind    Wind   Baro.  Precip.   Rad.    Soil   Depth
Year   Day     Temp.  Hum.  Speed  Dir.    Gust   Pres.                    Temp.       
2014   (PST)    F      %     mph   deg.    mph     mb.     in.     W/m2     F      in. 
---------------------------------------------------------------------------------------  
 105   14:50   56.6    36   12.8   281     17.9   822.0    0.00     463    999.0   -0.0
 105   15:00   56.4    36   12.1   279     18.0   822.0    0.00     428    999.0    0.0
 105   15:10   56.3    36   12.3   282     19.0   822.0    0.00     418    999.0   -0.1
 105   15:20   56.8    37    9.3   277     15.9   822.0    0.00     397    999.0    0.0
 105   15:30   56.7    37   11.7   273     19.3   822.0    0.00     385    999.0   -0.1
 105   15:40   56.6    38   11.8   278     19.0   822.0    0.00     350    999.0   -0.1
 105   15:50   56.6    38   13.2   274     18.8   822.0    0.00     346    999.0    0.0
 105   16:00   56.5    36   10.9   273     17.1   822.0    0.00     313    999.0   -0.2
 105   16:10   56.4    37   11.7   276     18.0   822.0    0.00     280    999.0   -0.2
 105   16:20   56.2    37   11.0   282     15.6   822.0    0.00      80    999.0   -0.2
 105   16:30   55.9    37   12.6   273     18.7   822.0    0.00     130    999.0   -0.1
 105   16:40   55.8    38   10.4   275     18.3   822.0    0.00     223    999.0   -0.2
 105   16:50   56.1    36    9.2   280     15.0   822.0    0.00     218    999.0   -0.4
 105   17:00   55.6    37    9.4   278     14.0   822.0    0.00     167    999.0   -0.3
 105   17:10   54.9    35    9.8   278     15.1   822.0    0.00     125    999.0   -0.2
 105   17:20   54.1    34    7.8   280     12.0   822.0    0.00      96    999.0   -0.2
 105   17:30   53.8    34    7.3   273     11.1   822.0    0.00     102    999.0   -0.2
 105   17:40   53.9    34    6.9   279      9.9   822.0    0.00      65    999.0   -0.2
 105   17:50   52.5    34    6.7   279     10.1   822.0    0.00      46    999.0   -0.2
 105   18:00   52.2    35    6.8   282      9.1   822.0    0.00      31    999.0   -0.2
 105   18:10   52.1    36    5.9   279      8.9   822.0    0.00      31    999.0   -0.2
 105   18:20   51.4    36    5.0   276      7.2   822.0    0.00      23    999.0   -0.1
 105   18:30   50.6    38    4.2   276      5.7   822.0    0.00      13    999.0   -0.2
 105   18:40   50.0    38    3.9   272      5.4   822.0    0.00       6    999.0   -0.2
 105   18:50   49.0    39    3.1   268      4.6   822.0    0.00       2    999.0   -0.1
 105   19:00   48.1    40    2.2   270      3.2   822.0    0.00       0    999.0   -0.0
 105   19:10   47.9    43    3.1   276      3.7   822.0    0.00       0    999.0    0.0
 105   19:20   47.5    46    3.0   275      3.7   822.0    0.00       0    999.0    0.1
 105   19:30   47.2    46    2.0   274      3.3   822.0    0.00       0    999.0    0.1
 105   19:40   47.2    45    1.2   273      2.3   822.0    0.00       0    999.0    0.1
 105   19:50   47.5    44    0.3   104      2.4   822.0    0.00       0    999.0    0.3
 105   20:00   47.4    43    1.6    79      2.4   822.0    0.00       0    999.0    0.2
 105   20:10   47.2    44    1.9    83      2.8   822.0    0.00       0    999.0    0.2
 105   20:20   46.3    49    1.8    97      2.8   822.0    0.00       0    999.0    0.1
 105   20:30   45.2    53    2.0   103      3.7   822.0    0.00       0    999.0   -0.1
 105   20:40   44.5    54    1.3    90      2.4   822.0    0.00       0    999.0    0.1
 105   20:50   44.5    53    1.2   108      2.3   822.0    0.00       0    999.0    0.3
 105   21:00   44.2    54    1.8    98      4.7   822.0    0.00       0    999.0    0.1
 105   21:10   43.7    56    3.2    85      5.1   822.0    0.00       0    999.0    0.0
 105   21:20   42.8    58    2.6    88      3.9   822.0    0.00       0    999.0   -0.0
 105   21:30   42.5    58    3.3    96      5.6   822.0    0.00       0    999.0   -0.0
 105   21:40   42.0    59    4.0    92      7.0   822.0    0.00       0    999.0   -0.0
 105   21:50   41.7    60    4.2    92      6.6   822.0    0.00       0    999.0    0.0
 105   22:00   42.0    59    4.1    94      6.1   822.0    0.00       0    999.0    0.1
 105   22:10   42.0    60    4.2    92      6.8   822.0    0.00       0    999.0    0.0
 105   22:20   41.7    60    4.4    89      6.6   822.0    0.00       0    999.0    0.0
 105   22:30   41.7    60    3.8    92      7.3   821.0    0.00       0    999.0    0.1
 105   22:40   41.9    58    3.7    99      6.1   821.0    0.00       0    999.0    0.1
 105   22:50   41.9    58    4.0    95      5.8   821.0    0.00       0    999.0    0.1
 105   23:00   41.8    58    4.1    84      7.0   821.0    0.00       0    999.0    0.1
 105   23:10   42.1    57    3.5    90      5.9   821.0    0.00       0    999.0    0.0
 105   23:20   42.4    57    3.4    80      5.7   822.0    0.00       0    999.0   -0.0
 105   23:30   42.5    56    3.3    84      5.5   822.0    0.00       0    999.0   -0.0
 105   23:40   42.4    57    2.7    82      4.7   822.0    0.00       0    999.0    0.0
 105   23:50   42.1    58    3.1    66      4.5   822.0    0.00       0    999.0    0.0
 106    0:00   42.1    57    2.9    61      4.5   822.0    0.00       0    999.0    0.2
 106    0:10   42.0    57    2.9    79      4.6   822.0    0.00       0    999.0    0.1
 106    0:20   41.4    59    2.9    84      5.1   822.0    0.00       0    999.0    0.1
 106    0:30   40.8    60    3.1    76      7.2   822.0    0.00       0    999.0    0.1
 106    0:40   40.9    60    3.0    68      4.8   821.0    0.00       0    999.0    0.2
 106    0:50   41.2    58    3.4    75      5.9   821.0    0.00       0    999.0    0.1
 106    1:00   40.5    60    2.7    86      5.6   821.0    0.00       0    999.0    0.1
 106    1:10   40.2    59    3.7    86      6.9   821.0    0.00       0    999.0   -0.1
 106    1:20   39.6    59    4.0    86      7.1   821.0    0.00       0    999.0    0.0
 106    1:30   40.1    57    4.6    78      7.0   821.0    0.00       0    999.0    0.0
 106    1:40   40.6    56    3.7    86      5.8   821.0    0.00       0    999.0    0.0
 106    1:50   40.0    56    4.1    86      6.6   821.0    0.00       0    999.0   -0.1
 106    2:00   39.4    57    3.6    88      7.0   821.0    0.00       0    999.0    0.1
 106    2:10   39.4    56    3.9    84      6.3   821.0    0.00       0    999.0    0.1
 106    2:20   39.2    55    3.5    94      6.8   821.0    0.00       0    999.0    0.0
 106    2:30   39.1    55    4.0   103      7.0   821.0    0.00       0    999.0    0.1
 106    2:40   38.8    56    4.7    81      8.3   821.0    0.00       0    999.0    0.1
 106    2:50   39.2    55    5.5    97      8.8   821.0    0.00       0    999.0    0.1
 106    3:00   39.3    54    4.3    99      6.9   821.0    0.00       0    999.0    0.1
 106    3:10   38.9    55    4.5    95      7.2   821.0    0.00       0    999.0    0.0
 106    3:20   38.5    57    4.4    79      7.0   821.0    0.00       0    999.0    0.1
 106    3:30   38.8    57    4.3    91      6.4   821.0    0.00       0    999.0    0.1
 106    3:40   39.3    55    3.9    82      6.5   820.0    0.00       0    999.0    0.1
 106    3:50   39.5    55    4.1    82      6.5   820.0    0.00       0    999.0    0.1
 106    4:00   38.8    57    3.6    89      6.1   821.0    0.00       0    999.0    0.1
 106    4:10   38.6    57    3.8    78      6.6   821.0    0.00       0    999.0    0.1
 106    4:20   40.1    52    3.0    78      5.4   821.0    0.00       0    999.0    0.2
 106    4:30   39.9    54    3.2    82      6.4   820.0    0.00       0    999.0    0.1
 106    4:40   38.8    57    3.3    77      6.5   820.0    0.00       0    999.0    0.2
 106    4:50   40.1    53    2.9    83      4.8   820.0    0.00       0    999.0    0.2
 106    5:00   39.9    54    3.1    88      4.5   820.0    0.00       0    999.0    0.0
 106    5:10   38.8    58    3.0    89      5.3   820.0    0.00       0    999.0    0.1
 106    5:20   38.8    59    2.7    84      4.5   820.0    0.00       1    999.0    0.1
 106    5:30   39.2    58    1.8    87      3.9   820.0    0.00       2    999.0    0.2
 106    5:40   40.8    54    1.7    94      4.0   821.0    0.00       8    999.0    0.2
 106    5:50   40.2    55    2.6    89      3.7   820.0    0.00      15    999.0   -0.1
 106    6:00   40.7    55    2.3    79      3.6   820.0    0.00      34    999.0   -0.2
 106    6:10   41.1    55    3.3    91      5.0   821.0    0.00      50    999.0   -0.3
 106    6:20   41.5    55    2.8    76      4.5   821.0    0.00      68    999.0   -0.4
 106    6:30   43.1    53    2.2    74      3.7   821.0    0.00      86    999.0   -0.5
 106    6:40   44.4    50    2.4   104      4.4   821.0    0.00     107    999.0   47.6
 106    6:50   45.0    49    2.4   102      3.6   821.0    0.00     129    999.0  158.9
 106    7:00   46.1    48    2.1    96      3.7   821.0    0.00     152    999.0  158.9
 106    7:10   47.4    46    2.0   122      3.8   821.0    0.00     176    999.0  158.6
 106    7:20   47.8    46    2.2   120      3.6   821.0    0.00     201    999.0  158.7
 106    7:30   48.2    46    2.3   115      3.7   821.0    0.00     227    999.0  158.1
 106    7:40   49.0    44    2.5   132      3.9   821.0    0.00     255    999.0  158.3
 106    7:50   50.3    41    2.4   137      4.5   821.0    0.00     278    999.0  157.6
 106    8:00   51.3    36    1.9   156      3.7   821.0    0.00     297    999.0  157.6
 106    8:10   52.2    35    2.1   156      4.7   820.0    0.00     326    999.0  157.1
 106    8:20   54.0    33    1.1   206      3.2   820.0    0.00     349    999.0  156.6
 106    8:30   53.8    32    3.1   303      5.7   820.0    0.00     371    999.0  156.5
 106    8:40   53.5    32    2.3   279      4.7   821.0    0.00     392    999.0  156.7
 106    8:50   55.3    30    3.9   270      7.3   821.0    0.00     416    999.0  156.9
 106    9:00   55.9    31    2.5   293      5.2   821.0    0.00     418    999.0  156.1
 106    9:10   56.1    31    3.2   280      7.0   821.0    0.00     437    999.0  156.8
 106    9:20   55.9    31    4.0   268      8.3   821.0    0.00     460    999.0  156.4
 106    9:30   56.8    30    3.6   258      8.3   821.0    0.00     488    999.0  156.4
 106    9:40   57.6    30    3.7   266      7.2   820.0    0.00     478    999.0  156.0
 106    9:50   57.7    30    3.9   265      7.7   821.0    0.00     525    999.0  155.9
 106   10:00   57.8    30    4.1   240      8.9   821.0    0.00     522    999.0  156.1
 106   10:10   58.9    29    5.1   254      9.2   821.0    0.00     507    999.0  156.4
 106   10:20   58.4    30    5.6   277      9.9   821.0    0.00     568    999.0  156.1
 106   10:30   57.9    29    5.0   277     12.4   821.0    0.00     571    999.0  156.3
 106   10:40   59.4    28    5.0   276     10.9   821.0    0.00     592    999.0  156.5
 106   10:50   58.7    28    8.2   268     14.1   821.0    0.00     601    999.0  157.1
 106   11:00   59.0    29    6.8   280     12.1   821.0    0.00     612    999.0  156.9
 106   11:10   59.1    30    7.6   282     15.3   820.0    0.00     613    999.0  157.3
 106   11:20   58.4    32    6.8   265     12.9   820.0    0.00     621    999.0  157.8
 106   11:30   59.1    31    9.5   270     13.6   820.0    0.00     631    999.0  157.7
 106   11:40   58.7    32    7.3   276     15.6   820.0    0.00     630    999.0  157.5
 106   11:50   59.1    34    9.8   270     17.2   820.0    0.00     638    999.0  157.7
 106   12:00   58.4    34   11.3   274     16.0   820.0    0.00     642    999.0   45.6
 106   12:10   58.4    34   10.3   269     16.5   820.0    0.00     636    999.0    0.0
 106   12:20   59.4    34    9.8   264     15.6   820.0    0.00     636    999.0   -0.0
 106   12:30   59.1    34    9.7   272     15.2   820.0    0.00     632    999.0   -0.1
 106   12:40   59.2    34    8.1   257     16.3   820.0    0.00     632    999.0    0.7
 106   12:50   60.3    33    9.9   268     18.0   820.0    0.00     643    999.0   30.1
 106   13:00   59.9    34    6.1   248     13.4   820.0    0.00     604    999.0   47.7
 106   13:10   59.9    34   10.5   280     16.1   820.0    0.00     581    999.0   45.6
 106   13:20   60.5    34   11.1   280     16.4   820.0    0.00     577    999.0   -0.1
 106   13:30   59.8    36   10.9   268     18.3   820.0    0.00     573    999.0   -0.2
 106   13:40   60.3    35   10.4   262     17.8   820.0    0.00     589    999.0   -0.1
 106   13:50   60.7    35   10.8   266     14.6   820.0    0.00     566    999.0   -0.2
 106   14:00   60.4    35    8.2   267     13.7   820.0    0.00     404    999.0   -0.2
 106   14:10   60.6    36   11.2   271     16.6   820.0    0.00     544    999.0   -0.1
 106   14:20   60.2    36   10.0   267     16.7   820.0    0.00     548    999.0   -0.1
 106   14:30   60.8    36   12.0   276     20.2   820.0    0.00     561    999.0   -0.1
 106   14:40   59.9    37    8.6   280     17.2   820.0    0.00     467    999.0   -0.1

Return to Cisco Butte graphs page.


Western Regional Climate Center,wrcc@dri.edu